createdAt,value
2019-05-23T00:00:14.508Z,12.00
2019-05-23T00:01:14.532Z,11.97
2019-05-23T00:02:14.544Z,11.99
2019-05-23T00:03:14.562Z,11.97
2019-05-23T00:04:14.582Z,11.91
2019-05-23T00:05:14.600Z,11.86
2019-05-23T00:06:14.617Z,11.89
2019-05-23T00:07:14.644Z,11.85
2019-05-23T00:08:14.655Z,11.91
2019-05-23T00:09:14.674Z,11.85
2019-05-23T00:10:14.690Z,11.93
2019-05-23T00:11:14.712Z,11.86
2019-05-23T00:12:14.730Z,11.91
2019-05-23T00:13:14.746Z,11.95
2019-05-23T00:14:14.766Z,11.86
2019-05-23T00:15:14.787Z,11.89
2019-05-23T00:16:14.804Z,11.83
2019-05-23T00:17:14.830Z,11.83
2019-05-23T00:18:14.859Z,11.81
2019-05-23T00:19:14.869Z,11.86
2019-05-23T00:20:14.876Z,11.83
2019-05-23T00:21:14.894Z,11.83
2019-05-23T00:22:14.917Z,11.80
2019-05-23T00:23:14.932Z,11.85
2019-05-23T00:24:14.951Z,11.80
2019-05-23T00:25:14.970Z,11.77
2019-05-23T00:26:14.987Z,11.78
2019-05-23T00:27:15.004Z,11.77
2019-05-23T00:28:15.023Z,11.78
2019-05-23T00:29:15.046Z,11.77
2019-05-23T00:30:15.064Z,11.70
2019-05-23T00:31:15.078Z,11.70
2019-05-23T00:32:15.098Z,11.83
2019-05-23T00:33:15.114Z,11.76
2019-05-23T00:34:15.131Z,11.65
2019-05-23T00:35:15.151Z,11.73
2019-05-23T00:36:15.177Z,11.63
2019-05-23T00:37:15.195Z,11.71
2019-05-23T00:38:15.208Z,11.67
2019-05-23T00:39:15.224Z,11.67
2019-05-23T00:40:15.245Z,11.67
2019-05-23T00:41:15.260Z,11.68
2019-05-23T00:42:15.283Z,11.70
2019-05-23T00:43:15.298Z,11.65
2019-05-23T00:44:15.319Z,11.67
2019-05-23T00:45:15.336Z,11.71
2019-05-23T00:46:15.352Z,11.70
2019-05-23T00:47:15.375Z,11.73
2019-05-23T00:48:15.389Z,11.68
2019-05-23T00:49:15.410Z,11.71
2019-05-23T00:50:15.428Z,11.70
2019-05-23T00:51:15.445Z,11.65
2019-05-23T00:52:15.461Z,11.62
2019-05-23T00:53:15.487Z,11.65
2019-05-23T00:54:15.513Z,11.56
2019-05-23T00:55:15.518Z,11.56
2019-05-23T00:56:15.541Z,11.58
2019-05-23T00:57:15.553Z,11.60
2019-05-23T00:58:15.573Z,11.58
2019-05-23T00:59:26.425Z,11.62
2019-05-23T01:00:15.609Z,11.68
2019-05-23T01:01:15.628Z,11.62
2019-05-23T01:02:15.648Z,11.62
2019-05-23T01:03:15.667Z,11.73
2019-05-23T01:04:15.688Z,11.62
2019-05-23T01:05:15.700Z,11.62
2019-05-23T01:06:15.720Z,11.53
2019-05-23T01:07:15.737Z,11.67
2019-05-23T01:08:15.757Z,11.67
2019-05-23T01:09:15.777Z,11.53
2019-05-23T01:10:15.793Z,11.63
2019-05-23T01:11:15.814Z,11.63
2019-05-23T01:12:15.833Z,11.60
2019-05-23T01:13:15.854Z,11.58
2019-05-23T01:14:15.879Z,11.58
2019-05-23T01:15:15.895Z,11.55
2019-05-23T01:16:15.905Z,11.55
2019-05-23T01:17:15.922Z,11.59
2019-05-23T01:18:15.953Z,11.59
2019-05-23T01:19:15.959Z,11.53
2019-05-23T01:20:15.976Z,11.48
2019-05-23T01:21:15.998Z,11.45
2019-05-23T01:22:16.015Z,11.41
2019-05-23T01:23:16.041Z,11.41
2019-05-23T01:24:16.057Z,11.45
2019-05-23T01:25:16.135Z,11.48
2019-05-23T01:26:16.134Z,11.48
2019-05-23T01:27:16.137Z,11.43
2019-05-23T01:28:16.209Z,11.40
2019-05-23T01:29:16.201Z,11.43
2019-05-23T01:30:16.196Z,11.37
2019-05-23T01:31:16.218Z,11.45
2019-05-23T01:32:16.212Z,11.45
2019-05-23T01:33:16.215Z,11.40
2019-05-23T01:34:16.232Z,11.40
2019-05-23T01:35:16.255Z,11.40
2019-05-23T01:36:16.319Z,11.40
2019-05-23T01:37:16.292Z,11.37
2019-05-23T01:38:16.305Z,11.38
2019-05-23T01:39:16.332Z,11.38
2019-05-23T01:40:16.347Z,11.35
2019-05-23T01:41:16.389Z,11.35
2019-05-23T01:42:16.382Z,11.30
2019-05-23T01:43:16.397Z,11.35
2019-05-23T01:44:16.416Z,11.33
2019-05-23T01:45:16.438Z,11.26
2019-05-23T01:46:16.451Z,11.23
2019-05-23T01:47:16.470Z,11.19
2019-05-23T01:48:16.488Z,11.27
2019-05-23T01:49:16.506Z,11.23
2019-05-23T01:50:16.525Z,11.18
2019-05-23T01:51:16.565Z,11.23
2019-05-23T01:52:16.582Z,11.18
2019-05-23T01:53:16.580Z,11.16
2019-05-23T01:54:16.601Z,11.15
2019-05-23T01:55:16.646Z,11.16
2019-05-23T01:56:16.644Z,11.16
2019-05-23T01:57:16.651Z,11.16
2019-05-23T01:58:16.672Z,11.20
2019-05-23T01:59:16.687Z,11.13
2019-05-23T02:00:16.705Z,11.08
2019-05-23T02:01:16.731Z,11.08
2019-05-23T02:02:16.742Z,11.15
2019-05-23T02:03:16.763Z,11.05
2019-05-23T02:04:16.778Z,11.04
2019-05-23T02:05:16.797Z,11.00
2019-05-23T02:06:16.814Z,10.97
2019-05-23T02:07:16.832Z,10.95
2019-05-23T02:08:16.995Z,10.97
2019-05-23T02:09:16.868Z,10.89
2019-05-23T02:10:16.885Z,10.95
2019-05-23T02:11:16.905Z,10.94
2019-05-23T02:12:16.928Z,10.86
2019-05-23T02:13:16.943Z,10.90
2019-05-23T02:14:16.958Z,10.90
2019-05-23T02:15:16.978Z,10.86
2019-05-23T02:16:16.996Z,10.89
2019-05-23T02:17:17.013Z,10.82
2019-05-23T02:18:17.029Z,10.87
2019-05-23T02:19:17.045Z,10.89
2019-05-23T02:20:17.066Z,10.83
2019-05-23T02:21:17.083Z,10.89
2019-05-23T02:22:17.100Z,10.82
2019-05-23T02:23:17.120Z,10.76
2019-05-23T02:24:17.155Z,10.76
2019-05-23T02:25:17.156Z,10.75
2019-05-23T02:26:17.172Z,10.76
2019-05-23T02:27:17.196Z,10.72
2019-05-23T02:28:17.206Z,10.71
2019-05-23T02:29:17.230Z,10.67
2019-05-23T02:30:32.866Z,10.65
2019-05-23T02:31:17.262Z,10.72
2019-05-23T02:32:17.280Z,10.61
2019-05-23T02:33:17.296Z,10.67
2019-05-23T02:34:17.318Z,10.55
2019-05-23T02:35:17.341Z,10.55
2019-05-23T02:36:17.352Z,10.57
2019-05-23T02:37:17.368Z,10.53
2019-05-23T02:38:17.388Z,10.53
2019-05-23T02:39:17.403Z,10.53
2019-05-23T02:40:17.425Z,10.53
2019-05-23T02:41:17.439Z,10.49
2019-05-23T02:42:17.459Z,10.49
2019-05-23T02:43:17.476Z,10.55
2019-05-23T02:44:17.495Z,10.46
2019-05-23T02:45:17.514Z,10.43
2019-05-23T02:46:17.527Z,10.46
2019-05-23T02:47:17.545Z,10.39
2019-05-23T02:48:17.577Z,10.55
2019-05-23T02:49:17.583Z,10.43
2019-05-23T02:50:17.599Z,10.38
2019-05-23T02:51:17.615Z,10.48
2019-05-23T02:52:17.638Z,10.46
2019-05-23T02:53:17.654Z,10.45
2019-05-23T02:54:17.669Z,10.45
2019-05-23T02:55:17.688Z,10.43
2019-05-23T02:56:17.714Z,10.41
2019-05-23T02:57:17.725Z,10.46
2019-05-23T02:58:17.742Z,10.48
2019-05-23T02:59:17.758Z,10.36
2019-05-23T03:00:17.776Z,10.45
2019-05-23T03:01:17.793Z,10.45
2019-05-23T03:02:17.812Z,10.45
2019-05-23T03:03:17.828Z,10.48
2019-05-23T03:04:17.846Z,10.43
2019-05-23T03:05:17.864Z,10.42
2019-05-23T03:06:17.879Z,10.30
2019-05-23T03:07:17.897Z,10.38
2019-05-23T03:08:17.917Z,10.20
2019-05-23T03:09:18.017Z,10.33
2019-05-23T03:10:18.024Z,10.36
2019-05-23T03:11:18.003Z,10.28
2019-05-23T03:12:18.009Z,10.23
2019-05-23T03:13:18.069Z,10.31
2019-05-23T03:14:18.074Z,10.23
2019-05-23T03:15:18.065Z,10.23
2019-05-23T03:16:18.082Z,10.27
2019-05-23T03:17:18.081Z,10.18
2019-05-23T03:18:18.090Z,10.18
2019-05-23T03:19:18.108Z,10.21
2019-05-23T03:20:18.126Z,10.18
2019-05-23T03:21:18.144Z,10.18
2019-05-23T03:22:18.160Z,10.10
2019-05-23T03:23:18.180Z,10.09
2019-05-23T03:24:18.198Z,10.06
2019-05-23T03:25:18.224Z,10.10
2019-05-23T03:26:18.241Z,10.12
2019-05-23T03:27:18.249Z,10.10
2019-05-23T03:28:18.268Z,10.00
2019-05-23T03:29:18.286Z,9.99
2019-05-23T03:30:18.305Z,9.99
2019-05-23T03:31:30.991Z,10.03
2019-05-23T03:32:18.337Z,9.94
2019-05-23T03:33:18.361Z,9.90
2019-05-23T03:34:18.419Z,9.94
2019-05-23T03:35:18.391Z,9.88
2019-05-23T03:36:18.406Z,9.87
2019-05-23T03:37:18.452Z,9.82
2019-05-23T03:38:18.445Z,9.81
2019-05-23T03:39:18.459Z,9.73
2019-05-23T03:40:18.484Z,9.77
2019-05-23T03:41:18.493Z,9.72
2019-05-23T03:42:18.510Z,9.69
2019-05-23T03:43:18.528Z,9.67
2019-05-23T03:44:18.639Z,9.58
2019-05-23T03:45:18.560Z,9.62
2019-05-23T03:46:18.583Z,9.63
2019-05-23T03:47:18.596Z,9.58
2019-05-23T03:48:18.613Z,9.51
2019-05-23T03:49:18.632Z,9.54
2019-05-23T03:50:18.647Z,9.47
2019-05-23T03:51:18.671Z,9.51
2019-05-23T03:52:18.684Z,9.48
2019-05-23T03:53:18.704Z,9.45
2019-05-23T03:54:18.737Z,9.33
2019-05-23T03:55:18.734Z,9.33
2019-05-23T03:56:18.752Z,9.34
2019-05-23T03:57:18.773Z,9.34
2019-05-23T03:58:18.807Z,9.36
2019-05-23T03:59:18.806Z,9.37
2019-05-23T04:00:18.820Z,9.29
2019-05-23T04:01:18.840Z,9.27
2019-05-23T04:02:18.854Z,9.21
2019-05-23T04:03:18.873Z,9.19
2019-05-23T04:04:18.890Z,9.21
2019-05-23T04:05:18.907Z,9.19
2019-05-23T04:06:18.921Z,9.11
2019-05-23T04:07:18.948Z,9.15
2019-05-23T04:08:18.960Z,9.12
2019-05-23T04:09:18.974Z,8.99
2019-05-23T04:10:18.989Z,9.18
2019-05-23T04:11:19.008Z,9.05
2019-05-23T04:12:19.025Z,9.12
2019-05-23T04:13:19.041Z,9.02
2019-05-23T04:14:19.057Z,9.08
2019-05-23T04:15:19.074Z,9.09
2019-05-23T04:16:19.093Z,9.00
2019-05-23T04:17:19.114Z,8.95
2019-05-23T04:18:19.127Z,9.00
2019-05-23T04:19:19.139Z,8.95
2019-05-23T04:20:19.158Z,8.93
2019-05-23T04:21:19.176Z,8.97
2019-05-23T04:22:19.194Z,8.84
2019-05-23T04:23:19.231Z,8.92
2019-05-23T04:24:19.238Z,8.86
2019-05-23T04:25:19.246Z,8.86
2019-05-23T04:26:19.261Z,8.86
2019-05-23T04:27:19.281Z,8.92
2019-05-23T04:28:19.294Z,8.89
2019-05-23T04:29:19.310Z,8.81
2019-05-23T04:30:19.328Z,8.90
2019-05-23T04:31:19.345Z,8.75
2019-05-23T04:32:19.362Z,8.82
2019-05-23T04:33:19.378Z,8.81
2019-05-23T04:34:19.392Z,8.74
2019-05-23T04:35:19.424Z,8.79
2019-05-23T04:36:19.432Z,8.86
2019-05-23T04:37:19.443Z,8.77
2019-05-23T04:38:19.475Z,8.82
2019-05-23T04:39:19.485Z,8.81
2019-05-23T04:40:19.495Z,8.77
2019-05-23T04:41:19.518Z,8.75
2019-05-23T04:42:19.529Z,8.77
2019-05-23T04:43:19.551Z,8.87
2019-05-23T04:44:19.563Z,8.78
2019-05-23T04:45:19.581Z,8.78
2019-05-23T04:46:19.595Z,8.77
2019-05-23T04:47:19.613Z,8.84
2019-05-23T04:48:19.637Z,8.78
2019-05-23T04:49:19.646Z,8.78
2019-05-23T04:50:19.662Z,8.92
2019-05-23T04:51:19.701Z,8.84
2019-05-23T04:52:19.707Z,8.78
2019-05-23T04:53:19.716Z,8.90
2019-05-23T04:54:19.732Z,8.82
2019-05-23T04:55:19.749Z,8.87
2019-05-23T04:56:19.770Z,8.90
2019-05-23T04:57:19.783Z,8.93
2019-05-23T04:58:19.884Z,8.96
2019-05-23T04:59:19.876Z,9.00
2019-05-23T05:00:19.890Z,8.97
2019-05-23T05:01:19.891Z,8.97
2019-05-23T05:02:26.184Z,9.09
2019-05-23T05:03:19.940Z,9.09
2019-05-23T05:04:19.938Z,9.08
2019-05-23T05:05:19.939Z,9.11
2019-05-23T05:06:19.934Z,9.19
2019-05-23T05:07:19.953Z,9.13
2019-05-23T05:08:19.969Z,9.15
2019-05-23T05:09:19.988Z,9.21
2019-05-23T05:10:20.006Z,9.21
2019-05-23T05:11:20.087Z,9.19
2019-05-23T05:12:20.038Z,9.29
2019-05-23T05:13:20.057Z,9.36
2019-05-23T05:14:20.073Z,9.34
2019-05-23T05:15:20.092Z,9.31
2019-05-23T05:16:20.111Z,9.44
2019-05-23T05:17:20.126Z,9.48
2019-05-23T05:18:20.143Z,9.48
2019-05-23T05:19:20.162Z,9.52
2019-05-23T05:20:20.180Z,9.59
2019-05-23T05:21:20.196Z,9.59
2019-05-23T05:22:20.219Z,9.72
2019-05-23T05:23:20.237Z,9.74
2019-05-23T05:24:20.281Z,9.76
2019-05-23T05:25:20.279Z,9.87
2019-05-23T05:26:20.282Z,9.88
2019-05-23T05:27:20.299Z,9.88
2019-05-23T05:28:20.319Z,9.92
2019-05-23T05:29:20.338Z,10.03
2019-05-23T05:30:20.350Z,10.03
2019-05-23T05:31:20.372Z,10.15
2019-05-23T05:32:20.391Z,10.06
2019-05-23T05:33:20.405Z,10.17
2019-05-23T05:34:20.437Z,10.18
2019-05-23T05:35:20.444Z,10.12
2019-05-23T05:36:20.461Z,10.28
2019-05-23T05:37:20.482Z,10.24
2019-05-23T05:38:20.507Z,10.27
2019-05-23T05:39:20.518Z,10.31
2019-05-23T05:40:20.535Z,10.24
2019-05-23T05:41:20.561Z,10.38
2019-05-23T05:42:20.576Z,10.43
2019-05-23T05:43:20.589Z,10.46
2019-05-23T05:44:20.768Z,10.45
2019-05-23T05:45:20.623Z,10.41
2019-05-23T05:46:20.645Z,10.53
2019-05-23T05:47:20.667Z,10.55
2019-05-23T05:48:20.679Z,10.59
2019-05-23T05:49:20.699Z,10.58
2019-05-23T05:50:20.726Z,10.57
2019-05-23T05:51:20.733Z,10.62
2019-05-23T05:52:20.750Z,10.61
2019-05-23T05:53:20.770Z,10.77
2019-05-23T05:54:20.789Z,10.65
2019-05-23T05:55:20.808Z,10.75
2019-05-23T05:56:20.828Z,10.76
2019-05-23T05:57:20.847Z,10.72
2019-05-23T05:58:20.864Z,10.80
2019-05-23T05:59:20.887Z,10.77
2019-05-23T06:00:20.909Z,10.92
2019-05-23T06:01:33.497Z,10.83
2019-05-23T06:02:20.935Z,10.90
2019-05-23T06:03:20.955Z,10.90
2019-05-23T06:04:20.971Z,11.01
2019-05-23T06:05:20.995Z,11.08
2019-05-23T06:06:21.010Z,10.94
2019-05-23T06:07:21.030Z,11.08
2019-05-23T06:08:21.044Z,11.18
2019-05-23T06:09:21.104Z,11.15
2019-05-23T06:10:21.275Z,11.30
2019-05-23T06:11:21.105Z,11.37
2019-05-23T06:12:21.122Z,11.41
2019-05-23T06:13:21.144Z,11.44
2019-05-23T06:14:21.159Z,11.49
2019-05-23T06:15:21.177Z,11.59
2019-05-23T06:16:21.201Z,11.63
2019-05-23T06:17:21.215Z,11.71
2019-05-23T06:18:21.231Z,11.83
2019-05-23T06:19:21.267Z,11.83
2019-05-23T06:20:21.282Z,11.95
2019-05-23T06:21:21.293Z,11.91
2019-05-23T06:22:21.315Z,11.88
2019-05-23T06:23:21.332Z,12.07
2019-05-23T06:24:39.871Z,12.17
2019-05-23T06:25:21.374Z,12.21
2019-05-23T06:26:21.387Z,12.23
2019-05-23T06:27:21.411Z,12.30
2019-05-23T06:28:21.481Z,12.40
2019-05-23T06:29:21.445Z,12.53
2019-05-23T06:30:21.489Z,12.73
2019-05-23T06:31:21.489Z,12.81
2019-05-23T06:32:21.511Z,12.87
2019-05-23T06:33:23.829Z,12.98
2019-05-23T06:34:21.546Z,13.11
2019-05-23T06:35:21.565Z,13.19
2019-05-23T06:36:21.590Z,13.23
2019-05-23T06:37:21.636Z,13.33
2019-05-23T06:38:21.627Z,13.50
2019-05-23T06:39:21.650Z,13.67
2019-05-23T06:40:21.744Z,13.80
2019-05-23T06:41:21.767Z,14.03
2019-05-23T06:42:21.756Z,14.08
2019-05-23T06:43:21.751Z,14.33
2019-05-23T06:44:21.811Z,14.51
2019-05-23T06:45:21.816Z,14.70
2019-05-23T06:46:21.815Z,14.89
2019-05-23T06:47:21.820Z,15.07
2019-05-23T06:48:21.840Z,15.14
2019-05-23T06:49:21.867Z,15.33
2019-05-23T06:50:21.884Z,15.55
2019-05-23T06:51:21.907Z,15.66
2019-05-23T06:52:21.930Z,15.84
2019-05-23T06:53:21.952Z,16.03
2019-05-23T06:54:22.004Z,16.13
2019-05-23T06:55:22.001Z,16.17
2019-05-23T06:56:22.020Z,16.25
2019-05-23T06:57:22.082Z,16.36
2019-05-23T06:58:22.679Z,16.51
2019-05-23T06:59:22.093Z,16.66
2019-05-23T07:00:22.118Z,16.84
2019-05-23T07:01:22.140Z,16.97
2019-05-23T07:02:22.186Z,17.12
2019-05-23T07:03:22.190Z,17.12
2019-05-23T07:04:22.217Z,17.17
2019-05-23T07:05:22.242Z,17.35
2019-05-23T07:06:22.262Z,17.42
2019-05-23T07:07:22.289Z,17.56
2019-05-23T07:08:25.147Z,17.79
2019-05-23T07:09:22.339Z,17.84
2019-05-23T07:10:22.361Z,17.86
2019-05-23T07:11:22.386Z,17.94
2019-05-23T07:12:22.411Z,18.11
2019-05-23T07:13:22.437Z,18.27
2019-05-23T07:14:22.463Z,18.42
2019-05-23T07:15:22.487Z,18.61
2019-05-23T07:16:22.521Z,18.68
2019-05-23T07:17:22.539Z,18.82
2019-05-23T07:18:22.566Z,18.85
2019-05-23T07:19:22.590Z,18.92
2019-05-23T07:20:22.620Z,19.04
2019-05-23T07:21:22.648Z,19.20
2019-05-23T07:22:22.671Z,19.09
2019-05-23T07:23:22.699Z,19.19
2019-05-23T07:24:22.733Z,19.23
2019-05-23T07:25:22.751Z,19.41
2019-05-23T07:26:22.776Z,19.42
2019-05-23T07:27:22.805Z,19.53
2019-05-23T07:28:22.831Z,19.63
2019-05-23T07:29:22.859Z,19.66
2019-05-23T07:30:22.986Z,19.78
2019-05-23T07:31:22.912Z,19.89
2019-05-23T07:32:22.941Z,19.97
2019-05-23T07:33:22.969Z,20.03
2019-05-23T07:34:22.995Z,20.14
2019-05-23T07:35:23.023Z,20.19
2019-05-23T07:36:23.053Z,20.30
2019-05-23T07:37:23.081Z,20.37
2019-05-23T07:38:23.107Z,20.37
2019-05-23T07:39:23.137Z,20.39
2019-05-23T07:40:23.178Z,20.52
2019-05-23T07:41:23.196Z,20.70
2019-05-23T07:42:23.225Z,20.78
2019-05-23T07:43:23.253Z,20.78
2019-05-23T07:44:23.281Z,20.93
2019-05-23T07:45:23.309Z,20.93
2019-05-23T07:46:23.348Z,20.90
2019-05-23T07:47:23.367Z,21.04
2019-05-23T07:48:23.418Z,20.96
2019-05-23T07:49:23.429Z,20.92
2019-05-23T07:50:23.452Z,21.01
2019-05-23T07:51:23.483Z,20.98
2019-05-23T07:52:23.509Z,20.95
2019-05-23T07:53:23.539Z,20.80
2019-05-23T07:54:23.565Z,20.53
2019-05-23T07:55:23.683Z,20.44
2019-05-23T07:56:23.663Z,20.37
2019-05-23T07:57:23.726Z,20.18
2019-05-23T07:58:23.723Z,20.22
2019-05-23T07:59:23.723Z,20.14
2019-05-23T08:00:23.737Z,19.81
2019-05-23T08:01:23.763Z,19.89
2019-05-23T08:02:25.728Z,19.94
2019-05-23T08:03:23.817Z,20.02
2019-05-23T08:04:23.845Z,20.12
2019-05-23T08:05:23.874Z,20.14
2019-05-23T08:06:23.903Z,20.12
2019-05-23T08:07:23.929Z,20.22
2019-05-23T08:08:23.956Z,20.04
2019-05-23T08:09:23.989Z,20.12
2019-05-23T08:10:33.695Z,20.11
2019-05-23T08:11:24.041Z,20.03
2019-05-23T08:12:24.074Z,19.82
2019-05-23T08:13:24.165Z,19.77
2019-05-23T08:14:24.131Z,19.66
2019-05-23T08:15:24.156Z,19.66
2019-05-23T08:16:24.181Z,19.70
2019-05-23T08:17:24.210Z,19.70
2019-05-23T08:18:24.264Z,19.66
2019-05-23T08:19:24.278Z,19.78
2019-05-23T08:20:24.298Z,19.74
2019-05-23T08:21:24.328Z,19.89
2019-05-23T08:22:24.359Z,19.85
2019-05-23T08:23:24.389Z,20.03
2019-05-23T08:24:24.437Z,20.12
2019-05-23T08:25:24.450Z,20.14
2019-05-23T08:26:24.478Z,20.26
2019-05-23T08:27:24.504Z,20.19
2019-05-23T08:28:24.533Z,20.34
2019-05-23T08:29:26.308Z,20.46
2019-05-23T08:30:24.597Z,20.30
2019-05-23T08:31:24.624Z,20.55
2019-05-23T08:32:24.661Z,20.58
2019-05-23T08:33:24.683Z,20.68
2019-05-23T08:34:39.947Z,20.78
2019-05-23T08:35:24.744Z,20.82
2019-05-23T08:36:24.777Z,20.88
2019-05-23T08:37:24.804Z,20.96
2019-05-23T08:38:24.832Z,20.75
2019-05-23T08:39:24.860Z,20.98
2019-05-23T08:40:24.904Z,20.93
2019-05-23T08:41:24.921Z,20.93
2019-05-23T08:42:24.955Z,20.98
2019-05-23T08:43:24.978Z,20.93
2019-05-23T08:44:25.009Z,20.88
2019-05-23T08:45:25.038Z,21.04
2019-05-23T08:46:25.068Z,21.04
2019-05-23T08:47:25.098Z,20.96
2019-05-23T08:48:25.127Z,20.90
2019-05-23T08:49:25.153Z,20.78
2019-05-23T08:50:25.179Z,20.77
2019-05-23T08:51:25.213Z,20.75
2019-05-23T08:52:25.235Z,20.78
2019-05-23T08:53:25.266Z,20.75
2019-05-23T08:54:25.336Z,20.83
2019-05-23T08:55:25.326Z,20.74
2019-05-23T08:56:25.349Z,20.82
2019-05-23T08:57:25.412Z,20.82
2019-05-23T08:58:25.401Z,20.86
2019-05-23T08:59:25.431Z,20.95
2019-05-23T09:00:25.458Z,20.92
2019-05-23T09:01:25.489Z,20.93
2019-05-23T09:02:25.594Z,21.04
2019-05-23T09:03:25.576Z,20.92
2019-05-23T09:04:25.655Z,20.86
2019-05-23T09:05:25.647Z,20.92
2019-05-23T09:06:25.640Z,20.95
2019-05-23T09:07:25.648Z,21.08
2019-05-23T09:08:25.678Z,21.08
2019-05-23T09:09:29.784Z,21.22
2019-05-23T09:10:25.735Z,21.17
2019-05-23T09:11:25.759Z,21.33
2019-05-23T09:12:25.787Z,21.35
2019-05-23T09:13:25.818Z,21.40
2019-05-23T09:14:25.845Z,21.50
2019-05-23T09:15:25.943Z,21.51
2019-05-23T09:16:25.897Z,21.53
2019-05-23T09:17:25.933Z,21.50
2019-05-23T09:18:25.953Z,21.54
2019-05-23T09:19:25.982Z,21.59
2019-05-23T09:20:26.012Z,21.60
2019-05-23T09:21:26.042Z,21.65
2019-05-23T09:22:26.062Z,21.72
2019-05-23T09:23:26.107Z,21.80
2019-05-23T09:24:26.120Z,21.91
2019-05-23T09:25:26.152Z,22.00
2019-05-23T09:26:26.175Z,21.92
2019-05-23T09:27:26.206Z,22.03
2019-05-23T09:28:26.236Z,21.96
2019-05-23T09:29:26.263Z,21.84
2019-05-23T09:30:26.290Z,21.85
2019-05-23T09:31:26.340Z,21.77
2019-05-23T09:32:26.346Z,21.88
2019-05-23T09:33:26.377Z,21.77
2019-05-23T09:34:26.407Z,21.72
2019-05-23T09:35:26.430Z,21.66
2019-05-23T09:36:26.462Z,21.72
2019-05-23T09:37:26.508Z,21.62
2019-05-23T09:38:26.512Z,21.66
2019-05-23T09:39:26.543Z,21.69
2019-05-23T09:40:26.580Z,21.70
2019-05-23T09:41:26.598Z,21.68
2019-05-23T09:42:26.626Z,21.68
2019-05-23T09:43:26.652Z,21.60
2019-05-23T09:44:26.682Z,21.78
2019-05-23T09:45:26.708Z,21.83
2019-05-23T09:46:26.749Z,21.96
2019-05-23T09:47:26.830Z,21.92
2019-05-23T09:48:26.797Z,22.08
2019-05-23T09:49:26.826Z,22.06
2019-05-23T09:50:26.858Z,22.10
2019-05-23T09:51:26.881Z,22.12
2019-05-23T09:52:26.910Z,22.12
2019-05-23T09:53:26.946Z,22.15
2019-05-23T09:54:26.967Z,22.25
2019-05-23T09:55:26.999Z,22.15
2019-05-23T09:56:27.029Z,22.33
2019-05-23T09:57:27.061Z,22.46
2019-05-23T09:58:27.089Z,22.56
2019-05-23T09:59:27.123Z,22.76
2019-05-23T10:00:27.239Z,22.92
2019-05-23T10:01:27.192Z,23.01
2019-05-23T10:02:27.215Z,23.18
2019-05-23T10:03:27.257Z,23.26
2019-05-23T10:04:27.287Z,23.36
2019-05-23T10:05:41.538Z,23.52
2019-05-23T10:06:27.347Z,23.63
2019-05-23T10:07:27.381Z,23.89
2019-05-23T10:08:27.420Z,23.89
2019-05-23T10:09:27.501Z,24.13
2019-05-23T10:10:27.515Z,24.28
2019-05-23T10:11:27.561Z,24.24
2019-05-23T10:12:27.560Z,24.19
2019-05-23T10:13:38.558Z,24.22
2019-05-23T10:14:27.614Z,24.38
2019-05-23T10:15:27.648Z,24.53
2019-05-23T10:16:27.684Z,24.40
2019-05-23T10:17:27.726Z,24.63
2019-05-23T10:18:27.750Z,24.78
2019-05-23T10:19:27.790Z,24.82
2019-05-23T10:20:27.821Z,24.84
2019-05-23T10:21:27.856Z,24.99
2019-05-23T10:22:27.890Z,25.19
2019-05-23T10:23:27.926Z,25.36
2019-05-23T10:24:27.960Z,25.44
2019-05-23T10:25:27.997Z,25.44
2019-05-23T10:26:28.029Z,25.31
2019-05-23T10:27:28.065Z,25.29
2019-05-23T10:28:28.124Z,25.37
2019-05-23T10:29:28.149Z,25.49
2019-05-23T10:30:28.170Z,25.54
2019-05-23T10:31:28.205Z,25.62
2019-05-23T10:32:28.242Z,25.71
2019-05-23T10:33:28.276Z,25.78
2019-05-23T10:34:28.340Z,25.88
2019-05-23T10:35:28.345Z,25.86
2019-05-23T10:36:28.382Z,25.98
2019-05-23T10:37:28.419Z,26.04
2019-05-23T10:38:29.417Z,26.24
2019-05-23T10:39:28.486Z,26.10
2019-05-23T10:40:28.524Z,26.23
2019-05-23T10:41:28.555Z,26.29
2019-05-23T10:42:28.591Z,26.39
2019-05-23T10:43:28.624Z,26.48
2019-05-23T10:44:28.659Z,26.66
2019-05-23T10:45:28.695Z,26.81
2019-05-23T10:46:28.733Z,26.97
2019-05-23T10:47:28.766Z,27.11
2019-05-23T10:48:28.798Z,27.07
2019-05-23T10:49:28.853Z,26.97
2019-05-23T10:50:43.686Z,26.98
2019-05-23T10:51:28.904Z,27.11
2019-05-23T10:52:29.012Z,27.10
2019-05-23T10:53:28.974Z,26.83
2019-05-23T10:54:29.008Z,27.01
2019-05-23T10:55:29.046Z,27.13
2019-05-23T10:56:29.078Z,27.26
2019-05-23T10:57:29.115Z,27.20
2019-05-23T10:58:29.151Z,27.25
2019-05-23T10:59:29.182Z,27.20
2019-05-23T11:00:29.216Z,27.13
2019-05-23T11:01:29.254Z,27.19
2019-05-23T11:02:29.286Z,27.11
2019-05-23T11:03:29.321Z,27.25
2019-05-23T11:04:29.443Z,27.26
2019-05-23T11:05:29.425Z,27.29
2019-05-23T11:06:29.551Z,27.35
2019-05-23T11:07:29.482Z,27.20
2019-05-23T11:08:30.480Z,27.23
2019-05-23T11:09:37.757Z,27.23
2019-05-23T11:10:29.576Z,27.28
2019-05-23T11:11:29.607Z,27.37
2019-05-23T11:12:29.637Z,27.37
2019-05-23T11:13:29.664Z,27.35
2019-05-23T11:14:29.702Z,27.53
2019-05-23T11:15:29.733Z,27.63
2019-05-23T11:16:29.767Z,27.81
2019-05-23T11:17:29.802Z,27.78
2019-05-23T11:18:29.837Z,27.64
2019-05-23T11:19:29.878Z,27.86
2019-05-23T11:20:29.930Z,27.97
2019-05-23T11:21:29.940Z,27.91
2019-05-23T11:22:30.040Z,28.09
2019-05-23T11:23:30.019Z,28.03
2019-05-23T11:24:30.044Z,28.20
2019-05-23T11:25:30.077Z,28.19
2019-05-23T11:26:30.112Z,28.28
2019-05-23T11:27:30.151Z,28.22
2019-05-23T11:28:30.186Z,28.31
2019-05-23T11:29:30.217Z,28.37
2019-05-23T11:30:30.255Z,28.33
2019-05-23T11:31:30.287Z,28.52
2019-05-23T11:32:30.328Z,28.49
2019-05-23T11:33:30.355Z,28.70
2019-05-23T11:34:30.393Z,28.84
2019-05-23T11:35:30.428Z,28.72
2019-05-23T11:36:36.190Z,28.74
2019-05-23T11:37:30.496Z,28.68
2019-05-23T11:38:30.537Z,28.75
2019-05-23T11:39:30.567Z,28.84
2019-05-23T11:40:33.535Z,28.97
2019-05-23T11:41:30.635Z,28.96
2019-05-23T11:42:30.671Z,28.94
2019-05-23T11:43:30.715Z,28.86
2019-05-23T11:44:30.748Z,28.68
2019-05-23T11:45:30.780Z,28.68
2019-05-23T11:46:30.813Z,28.75
2019-05-23T11:47:32.186Z,28.68
2019-05-23T11:48:31.229Z,28.72
2019-05-23T11:49:30.919Z,28.80
2019-05-23T11:50:30.956Z,28.72
2019-05-23T11:51:30.997Z,28.50
2019-05-23T11:52:31.024Z,28.49
2019-05-23T11:53:31.069Z,28.50
2019-05-23T11:54:31.092Z,28.41
2019-05-23T11:55:31.134Z,28.37
2019-05-23T11:56:31.161Z,28.31
2019-05-23T11:57:31.195Z,28.34
2019-05-23T11:58:32.620Z,28.30
2019-05-23T11:59:31.260Z,28.28
2019-05-23T12:00:31.377Z,28.30
2019-05-23T12:01:31.376Z,28.19
2019-05-23T12:02:31.427Z,28.04
2019-05-23T12:03:31.424Z,27.86
2019-05-23T12:04:31.428Z,27.75
2019-05-23T12:05:31.497Z,27.64
2019-05-23T12:06:31.500Z,27.48
2019-05-23T12:07:31.530Z,27.55
2019-05-23T12:08:31.561Z,27.47
2019-05-23T12:09:31.595Z,27.38
2019-05-23T12:10:31.629Z,27.26
2019-05-23T12:11:35.516Z,27.20
2019-05-23T12:12:31.693Z,27.13
2019-05-23T12:13:31.725Z,27.10
2019-05-23T12:14:31.758Z,27.22
2019-05-23T12:15:31.790Z,27.20
2019-05-23T12:16:31.834Z,27.04
2019-05-23T12:17:31.856Z,27.00
2019-05-23T12:18:31.887Z,26.91
2019-05-23T12:19:32.019Z,26.92
2019-05-23T12:20:31.952Z,26.93
2019-05-23T12:21:31.989Z,26.83
2019-05-23T12:22:32.061Z,26.74
2019-05-23T12:23:32.046Z,26.61
2019-05-23T12:24:35.284Z,26.56
2019-05-23T12:25:32.113Z,26.55
2019-05-23T12:26:32.143Z,26.39
2019-05-23T12:27:32.175Z,26.26
2019-05-23T12:28:32.210Z,25.98
2019-05-23T12:29:32.236Z,25.93
2019-05-23T12:30:32.273Z,25.91
2019-05-23T12:31:32.299Z,25.86
2019-05-23T12:32:32.333Z,25.78
2019-05-23T12:33:32.364Z,25.71
2019-05-23T12:34:32.393Z,25.67
2019-05-23T12:35:32.423Z,25.66
2019-05-23T12:36:32.460Z,25.70
2019-05-23T12:37:32.486Z,25.85
2019-05-23T12:38:32.518Z,25.98
2019-05-23T12:39:32.550Z,26.19
2019-05-23T12:40:32.581Z,26.24
2019-05-23T12:41:32.617Z,26.67
2019-05-23T12:42:32.659Z,26.86
2019-05-23T12:43:32.715Z,27.11
2019-05-23T12:44:32.739Z,27.28
2019-05-23T12:45:32.744Z,27.30
2019-05-23T12:46:32.778Z,27.55
2019-05-23T12:47:32.811Z,27.45
2019-05-23T12:48:32.845Z,27.52
2019-05-23T12:49:32.879Z,27.53
2019-05-23T12:50:32.918Z,27.60
2019-05-23T12:51:32.945Z,27.71
2019-05-23T12:52:32.981Z,27.71
2019-05-23T12:53:33.015Z,27.75
2019-05-23T12:54:33.046Z,27.76
2019-05-23T12:55:33.086Z,27.61
2019-05-23T12:56:33.132Z,27.81